Terminal Aerodrome Forecast
Issued by NWS

Home | Current Version | Previous Version | Text Only | Print | Product List | Glossary On
Versions: 1 2 3 4 5 6 7 8 9 10 11 12 13 14 15 16 17 18 19 20 21
233
FTUS45 KFGZ 290525
TAFSEZ
TAF
KSEZ 290525Z 2906/3006 VRB05KT P6SM SCT060 BKN080 BKN110
      TEMPO 2906/2907 -SHRA BKN060
     FM290700 VRB05KT P6SM SCT080 SCT120
     FM291500 14006KT P6SM VCTS SCT030 BKN045CB OVC080
      TEMPO 2916/2920 4SM TSRA BKN030CB
     FM292000 19007KT P6SM VCSH BKN040 OVC060
      TEMPO 2920/2924 5SM -SHRA BKN030
     FM300200 VRB03KT P6SM SCT040 BKN060=

USA.gov is the U.S. government's official web portal to all federal, state and local government web resources and services.